Time;durP1;ratioP1;P1;durP2;ratioP2;P2;SDS_P1;SDS_P2;PMS_P1;PMS_P2;Temp;Humidity;BMP_temperature;BMP_pressure;BME280_temperature;BME280_humidity;BME280_pressure;Samples;Min_cycle;Max_cycle;Signal;HPM_P1;HPM_P2
2023/08/13 00:00:33;;;;;;;9.30;8.40;;;;;;;25.75;65.81;98979.97;6990342;28;20270;-83
2023/08/13 00:03:54;;;;;;;9.43;8.13;;;;;;;25.81;65.77;98992.59;6975560;28;20275;-84
2023/08/13 00:07:16;;;;;;;9.20;7.27;;;;;;;25.64;65.77;98995.03;6974091;28;20292;-83
2023/08/13 00:10:40;;;;;;;9.40;7.23;;;;;;;25.59;65.94;98992.34;7000698;28;20205;-84
2023/08/13 00:14:01;;;;;;;8.70;7.40;;;;;;;25.67;65.93;98988.91;7001948;28;20237;-83
2023/08/13 00:17:23;;;;;;;8.80;8.00;;;;;;;25.30;67.40;98988.06;7001775;28;20286;-83
2023/08/13 00:20:44;;;;;;;8.37;7.67;;;;;;;25.63;66.00;98987.88;7002533;28;20301;-84
2023/08/13 00:24:07;;;;;;;8.60;7.70;;;;;;;25.71;65.69;98983.63;7001720;28;20886;-83
2023/08/13 00:27:30;;;;;;;7.83;7.00;;;;;;;25.63;65.29;98985.13;7000758;28;20199;-83
2023/08/13 00:30:51;;;;;;;6.97;6.23;;;;;;;25.72;65.29;98993.56;7000711;28;20247;-83
2023/08/13 00:34:12;;;;;;;9.00;7.57;;;;;;;25.44;65.36;98991.72;6995609;28;20306;-83
2023/08/13 00:37:35;;;;;;;7.90;7.20;;;;;;;25.63;65.14;98993.41;7000275;28;20346;-83
2023/08/13 00:40:56;;;;;;;8.13;7.33;;;;;;;25.55;64.71;98998.78;7001272;28;20247;-83
2023/08/13 00:44:19;;;;;;;8.43;7.17;;;;;;;25.68;64.31;98986.97;7000439;28;20343;-84
2023/08/13 00:47:41;;;;;;;8.37;7.53;;;;;;;25.56;64.44;98995.72;6999145;28;20281;-83
2023/08/13 00:51:02;;;;;;;7.50;6.80;;;;;;;25.39;64.22;98969.72;7000311;28;20234;-83
2023/08/13 00:54:24;;;;;;;8.10;7.30;;;;;;;25.25;64.54;98994.44;6995306;28;20321;-83
2023/08/13 00:57:45;;;;;;;7.70;6.90;;;;;;;25.18;65.58;99002.25;6973592;28;20296;-83
2023/08/13 01:01:09;;;;;;;8.37;6.70;;;;;;;25.19;65.24;98995.59;6972144;28;20228;-83
2023/08/13 01:04:31;;;;;;;8.73;6.47;;;;;;;25.25;64.68;98999.16;6972437;28;20295;-83
2023/08/13 01:07:57;;;;;;;6.53;5.93;;;;;;;24.84;65.16;98995.22;6971604;28;20344;-83
2023/08/13 01:11:24;;;;;;;6.70;5.97;;;;;;;25.11;65.28;99000.94;6971722;28;20756;-83
2023/08/13 01:14:51;;;;;;;6.37;5.87;;;;;;;25.07;65.08;98997.97;6971922;28;20297;-84
2023/08/13 01:18:14;;;;;;;7.10;5.57;;;;;;;25.14;64.62;99001.19;6971788;28;20191;-83
2023/08/13 01:21:36;;;;;;;5.90;5.33;;;;;;;25.19;64.11;98990.09;6971995;28;20253;-83
2023/08/13 01:24:59;;;;;;;6.03;5.43;;;;;;;24.74;63.60;98923.59;6971909;28;20321;-82
2023/08/13 01:28:24;;;;;;;5.90;5.30;;;;;;;24.99;64.16;98997.78;6970791;28;20304;-84
2023/08/13 01:31:47;;;;;;;7.27;5.30;;;;;;;24.90;63.28;99003.13;6971978;28;20256;-83
2023/08/13 01:35:10;;;;;;;6.60;5.40;;;;;;;24.74;64.44;98998.06;6971363;28;20343;-83
2023/08/13 01:38:32;;;;;;;6.00;5.40;;;;;;;24.73;64.72;98994.47;6970836;28;20209;-84
2023/08/13 01:41:57;;;;;;;6.77;5.53;;;;;;;24.51;65.59;99007.91;6971230;28;20314;-84
2023/08/13 01:45:19;;;;;;;5.73;5.23;;;;;;;23.99;65.46;98933.44;6975494;28;20328;-84
2023/08/13 01:48:40;;;;;;;6.63;5.80;;;;;;;24.40;65.53;98994.50;6976348;28;20219;-84
2023/08/13 01:52:02;;;;;;;6.27;5.47;;;;;;;24.56;65.37;98996.84;6975147;28;20275;-83
2023/08/13 01:55:23;;;;;;;5.57;4.93;;;;;;;24.70;64.89;98997.00;6976973;28;20276;-83
2023/08/13 01:58:46;;;;;;;6.50;5.37;;;;;;;24.80;64.24;98983.94;6977003;28;20461;-83
2023/08/13 02:02:08;;;;;;;5.37;4.87;;;;;;;24.51;64.01;98952.78;6976817;28;20321;-84
2023/08/13 02:05:29;;;;;;;5.77;5.13;;;;;;;24.36;64.56;98998.97;6976733;28;20285;-83
2023/08/13 02:08:51;;;;;;;6.33;5.20;;;;;;;24.22;65.94;99000.72;6976599;28;20559;-84
2023/08/13 02:12:13;;;;;;;5.30;4.80;;;;;;;24.03;66.31;99005.28;6976293;28;20371;-83
2023/08/13 02:15:36;;;;;;;6.37;5.23;;;;;;;24.39;65.53;99001.97;7004011;28;20321;-83
2023/08/13 02:18:57;;;;;;;6.90;5.87;;;;;;;24.45;65.02;98977.91;7003229;28;20252;-83
2023/08/13 02:22:19;;;;;;;5.90;5.30;;;;;;;24.83;64.42;99010.13;7003850;28;20695;-84
2023/08/13 02:25:40;;;;;;;5.90;5.40;;;;;;;24.60;65.10;98983.34;7003306;28;20304;-83
2023/08/13 02:29:02;;;;;;;5.20;4.70;;;;;;;24.65;65.00;98994.31;7004000;28;20291;-84
2023/08/13 02:32:25;;;;;;;5.20;4.80;;;;;;;24.56;65.15;99004.28;7004440;28;20316;-83
2023/08/13 02:35:46;;;;;;;5.57;5.17;;;;;;;24.33;65.47;99007.81;7002940;28;20694;-83
2023/08/13 02:39:08;;;;;;;6.00;5.53;;;;;;;24.31;65.98;98987.97;6984155;28;20238;-83
2023/08/13 02:42:29;;;;;;;5.90;5.33;;;;;;;24.64;65.26;98987.97;6975769;28;20321;-83
2023/08/13 02:45:51;;;;;;;9.37;4.87;;;;;;;24.83;64.56;98983.34;6975155;28;20210;-83
2023/08/13 02:49:14;;;;;;;6.10;5.60;;;;;;;24.59;64.76;98995.47;6975993;28;20236;-83
2023/08/13 02:52:35;;;;;;;5.90;5.30;;;;;;;24.71;64.85;98984.88;6973259;28;20319;-84
2023/08/13 02:55:57;;;;;;;5.80;5.23;;;;;;;24.73;65.14;98985.41;6977340;28;20225;-83
2023/08/13 02:59:18;;;;;;;6.30;5.70;;;;;;;24.83;64.82;98988.06;7002559;28;20220;-84
2023/08/13 03:02:40;;;;;;;5.13;4.63;;;;;;;24.84;64.32;98976.69;7001368;28;20323;-83
2023/08/13 03:06:03;;;;;;;7.17;5.07;;;;;;;24.82;64.15;98978.94;6974251;28;20726;-83
2023/08/13 03:09:24;;;;;;;5.47;4.97;;;;;;;24.68;64.06;98979.94;6974603;28;20300;-84
2023/08/13 03:12:45;;;;;;;7.93;5.33;;;;;;;24.51;64.50;98966.56;6974723;28;20301;-82
2023/08/13 03:16:07;;;;;;;5.90;5.37;;;;;;;24.33;64.75;98974.72;6973679;28;20631;-83
2023/08/13 03:19:29;;;;;;;8.67;6.63;;;;;;;24.04;66.31;98962.84;6974345;28;20302;-83
2023/08/13 03:22:52;;;;;;;7.33;6.60;;;;;;;24.22;66.40;98973.16;6973495;28;20226;-82
2023/08/13 03:26:13;;;;;;;7.50;6.03;;;;;;;24.28;66.25;98985.78;6973614;28;20286;-83
2023/08/13 03:29:34;;;;;;;6.80;6.03;;;;;;;24.25;66.07;98972.59;6974226;28;20345;-83
2023/08/13 03:32:56;;;;;;;6.30;5.80;;;;;;;24.47;65.66;98982.03;6974483;28;20236;-83
2023/08/13 03:36:17;;;;;;;8.23;5.83;;;;;;;24.79;64.37;98967.69;6973842;28;20370;-84
2023/08/13 03:39:40;;;;;;;7.07;6.13;;;;;;;24.65;64.67;98972.25;6973440;28;20302;-84
2023/08/13 03:43:02;;;;;;;6.27;5.67;;;;;;;24.35;66.51;98964.22;6973610;28;20752;-83
2023/08/13 03:46:23;;;;;;;6.23;5.63;;;;;;;24.50;65.61;98962.16;6973606;28;20204;-83
2023/08/13 03:49:45;;;;;;;6.90;5.63;;;;;;;24.63;65.19;98966.19;6973936;28;20770;-83
2023/08/13 03:53:07;;;;;;;8.83;5.77;;;;;;;24.50;64.92;98978.72;6973026;28;20358;-84
2023/08/13 03:56:30;;;;;;;7.60;6.07;;;;;;;24.39;65.30;98979.91;6973947;28;20358;-84
2023/08/13 03:59:52;;;;;;;8.33;5.90;;;;;;;24.42;65.74;98973.81;6983589;28;20291;-84
2023/08/13 04:03:13;;;;;;;7.93;5.90;;;;;;;24.41;65.50;98955.63;6980924;28;20251;-82
2023/08/13 04:06:34;;;;;;;6.47;5.80;;;;;;;24.44;65.87;98976.28;7000444;28;20299;-83
2023/08/13 04:09:56;;;;;;;7.63;5.27;;;;;;;24.65;65.05;98956.50;7001313;28;20232;-83
2023/08/13 04:13:19;;;;;;;7.40;5.27;;;;;;;24.72;64.80;98979.03;7000737;28;20223;-82
2023/08/13 04:16:41;;;;;;;6.80;5.03;;;;;;;24.79;64.39;98987.78;7000643;28;20234;-84
2023/08/13 04:20:03;;;;;;;6.40;5.23;;;;;;;24.14;64.25;98910.44;7000954;28;20205;-83
2023/08/13 04:23:25;;;;;;;7.10;5.10;;;;;;;24.25;65.00;98983.63;7000430;28;20713;-83
2023/08/13 04:26:46;;;;;;;7.77;5.70;;;;;;;23.99;66.14;98987.69;7000345;28;20337;-83
2023/08/13 04:30:10;;;;;;;5.70;5.20;;;;;;;24.03;67.00;98975.81;7000531;28;20301;-83
2023/08/13 04:33:31;;;;;;;6.73;5.57;;;;;;;24.33;66.85;98978.31;6999841;28;20372;-82
2023/08/13 04:36:53;;;;;;;6.10;5.60;;;;;;;24.43;66.45;98983.72;6999362;28;20213;-83
2023/08/13 04:40:15;;;;;;;6.93;6.27;;;;;;;24.28;66.17;98950.81;6999739;28;20233;-85
2023/08/13 04:43:36;;;;;;;7.90;6.87;;;;;;;23.66;65.78;98840.59;6999644;28;20698;-82
2023/08/13 04:46:59;;;;;;;7.47;6.77;;;;;;;24.41;66.41;98963.06;7000357;28;20237;-81
2023/08/13 04:50:21;;;;;;;7.27;6.60;;;;;;;24.66;66.04;98977.47;6999755;28;20243;-82
2023/08/13 04:54:08;;;;;;;7.87;6.27;;;;;;;24.65;65.39;98966.75;6999135;28;20229;-82
2023/08/13 04:57:31;;;;;;;6.47;5.60;;;;;;;24.88;65.38;98952.94;6983906;28;20714;-83
2023/08/13 05:00:52;;;;;;;6.13;5.63;;;;;;;25.12;64.14;98967.53;6976741;28;20290;-82
2023/08/13 05:04:15;;;;;;;8.43;5.17;;;;;;;24.99;64.52;98964.66;6973172;28;20347;-82
2023/08/13 05:07:36;;;;;;;6.40;5.80;;;;;;;24.72;65.78;98981.81;6972577;28;20290;-82
2023/08/13 05:10:58;;;;;;;5.97;5.47;;;;;;;24.54;66.26;98989.97;6972444;28;20293;-82
2023/08/13 05:14:20;;;;;;;6.43;5.83;;;;;;;24.64;66.38;98998.16;6972146;28;20322;-82
2023/08/13 05:17:41;;;;;;;7.03;6.27;;;;;;;24.87;65.10;98981.66;6971995;28;20714;-84
2023/08/13 05:21:05;;;;;;;7.00;6.37;;;;;;;24.24;67.28;98993.00;6972256;28;20292;-83
2023/08/13 05:24:27;;;;;;;6.13;5.63;;;;;;;24.42;67.80;98984.03;6977071;28;20208;-82
2023/08/13 05:27:48;;;;;;;6.00;5.40;;;;;;;24.85;66.37;98989.41;6992089;28;20683;-86
2023/08/13 05:31:17;;;;;;;6.23;5.73;;;;;;;25.02;66.58;98998.00;6971252;28;20280;-83
2023/08/13 05:34:38;;;;;;;7.00;6.30;;;;;;;24.80;66.55;99006.00;6984367;28;20211;-82
2023/08/13 05:38:34;;;;;;;8.00;6.60;;;;;;;24.53;67.65;99008.44;6972656;28;20238;-83
2023/08/13 05:41:55;;;;;;;8.10;6.97;;;;;;;24.71;67.58;99007.75;6974434;28;20254;-83
2023/08/13 05:45:17;;;;;;;6.40;5.80;;;;;;;25.03;66.50;99005.19;6971928;28;20303;-83
2023/08/13 05:48:39;;;;;;;5.93;5.53;;;;;;;25.15;65.58;99013.88;6994339;28;20681;-83
2023/08/13 05:52:09;;;;;;;6.43;5.90;;;;;;;24.94;66.11;99004.19;6987289;28;20320;-82
2023/08/13 05:55:31;;;;;;;7.80;7.10;;;;;;;24.31;68.03;98961.22;6967606;28;20239;-83
2023/08/13 05:59:12;;;;;;;6.57;6.07;;;;;;;24.98;66.96;99007.19;6997595;28;20311;-87
2023/08/13 06:02:34;;;;;;;6.83;6.23;;;;;;;25.11;66.96;99012.81;7001444;28;20723;-82
2023/08/13 06:05:56;;;;;;;7.17;6.63;;;;;;;25.08;66.92;98994.06;7000049;28;20252;-83
2023/08/13 06:09:18;;;;;;;7.43;6.73;;;;;;;24.95;67.12;98977.44;6995600;28;20208;-82
2023/08/13 06:12:41;;;;;;;7.67;6.87;;;;;;;24.97;67.55;98987.06;6972073;28;20722;-84
2023/08/13 06:16:02;;;;;;;7.57;6.90;;;;;;;25.28;66.64;99002.16;7003008;28;20322;-82
2023/08/13 06:19:24;;;;;;;6.83;6.17;;;;;;;25.49;65.59;98999.97;6985489;28;20215;-85
2023/08/13 06:22:45;;;;;;;6.47;5.93;;;;;;;25.47;65.91;99000.25;6999458;28;20285;-82
2023/08/13 06:26:07;;;;;;;6.93;6.07;;;;;;;25.45;65.94;99008.00;6999855;28;20664;-83
2023/08/13 06:29:30;;;;;;;6.47;5.87;;;;;;;25.47;65.88;98986.44;7001221;28;20240;-84
2023/08/13 06:32:51;;;;;;;6.43;5.93;;;;;;;25.77;65.28;99010.06;7001390;28;20244;-84
2023/08/13 06:36:14;;;;;;;6.47;5.97;;;;;;;25.66;64.48;98959.66;6985038;28;20384;-85
2023/08/13 06:39:35;;;;;;;5.67;5.27;;;;;;;25.91;64.35;98999.94;6995609;28;20207;-83
2023/08/13 06:42:57;;;;;;;6.83;5.93;;;;;;;25.73;64.38;98998.75;6993737;28;20307;-84
2023/08/13 06:46:20;;;;;;;6.70;6.10;;;;;;;25.37;66.31;99000.38;6996903;28;20199;-83
2023/08/13 06:49:41;;;;;;;5.63;5.13;;;;;;;25.88;64.93;98994.94;7008561;28;20203;-84
2023/08/13 06:53:03;;;;;;;6.53;5.93;;;;;;;25.92;64.95;98996.88;7009792;28;20299;-85
2023/08/13 06:56:25;;;;;;;5.63;5.23;;;;;;;25.94;65.42;99010.38;6982667;28;20370;-83
2023/08/13 06:59:46;;;;;;;5.53;5.03;;;;;;;26.07;64.64;99012.41;6996149;28;20283;-84
2023/08/13 07:03:09;;;;;;;6.43;5.83;;;;;;;25.55;66.15;99007.06;7000059;28;20314;-84
2023/08/13 07:06:31;;;;;;;5.93;5.43;;;;;;;26.01;65.23;99032.94;7000261;28;20297;-84
2023/08/13 07:09:52;;;;;;;5.53;5.03;;;;;;;26.01;65.21;99008.88;7000954;28;20263;-84
2023/08/13 07:13:14;;;;;;;6.40;5.67;;;;;;;26.01;65.67;99014.41;7000207;28;20225;-83
2023/08/13 07:16:35;;;;;;;5.00;4.60;;;;;;;26.08;65.20;99006.53;6999729;28;20313;-84
2023/08/13 07:19:59;;;;;;;4.90;4.40;;;;;;;26.12;65.54;99010.34;6995315;28;20210;-84
2023/08/13 07:23:20;;;;;;;4.83;4.40;;;;;;;26.05;65.55;98993.34;6972513;28;20237;-84
2023/08/13 07:26:42;;;;;;;4.13;3.83;;;;;;;25.97;66.27;99002.31;6971511;28;20299;-84
2023/08/13 07:30:04;;;;;;;4.47;4.17;;;;;;;26.20;65.79;99003.34;6971768;28;20706;-84
2023/08/13 07:33:25;;;;;;;4.90;4.40;;;;;;;26.32;65.55;98989.88;6972178;28;20226;-83
2023/08/13 07:36:48;;;;;;;4.20;3.90;;;;;;;26.37;65.08;98982.28;6971446;28;20229;-83
2023/08/13 07:40:12;;;;;;;4.47;4.17;;;;;;;26.52;64.02;98989.50;6971423;28;20204;-85
2023/08/13 07:43:34;;;;;;;6.17;4.47;;;;;;;26.61;64.15;99020.91;6971849;28;20336;-84
2023/08/13 07:46:58;;;;;;;4.67;4.27;;;;;;;26.75;63.80;99008.75;6971189;28;20202;-84
2023/08/13 07:50:19;;;;;;;4.87;4.47;;;;;;;26.44;64.78;99001.25;6971322;28;20662;-85
2023/08/13 07:53:42;;;;;;;6.20;5.60;;;;;;;26.48;65.65;99014.19;6971054;28;20320;-82
2023/08/13 07:57:05;;;;;;;5.13;4.73;;;;;;;26.49;65.79;98998.41;6969989;28;20233;-84
2023/08/13 08:00:27;;;;;;;5.93;5.53;;;;;;;26.63;65.48;99022.25;6971461;28;20288;-85
2023/08/13 08:03:48;;;;;;;4.83;4.53;;;;;;;26.60;64.79;98981.34;6975113;28;20221;-84
2023/08/13 08:07:10;;;;;;;4.60;4.20;;;;;;;26.64;63.32;98943.66;6997975;28;20203;-84
2023/08/13 08:10:33;;;;;;;5.70;5.20;;;;;;;26.86;63.39;98971.47;6999043;28;20285;-83
2023/08/13 08:13:54;;;;;;;4.53;4.13;;;;;;;26.57;63.85;98959.84;6998515;28;20277;-84
2023/08/13 08:17:17;;;;;;;4.63;4.00;;;;;;;27.09;63.75;98987.06;6980624;28;20327;-83
2023/08/13 08:20:40;;;;;;;4.80;4.40;;;;;;;27.24;63.39;98997.84;6999898;28;20211;-82
2023/08/13 08:24:02;;;;;;;6.30;4.83;;;;;;;27.37;63.30;98994.22;7013525;28;20307;-84
2023/08/13 08:27:25;;;;;;;4.60;4.27;;;;;;;27.29;64.09;98989.44;6997988;28;20704;-84
2023/08/13 08:30:46;;;;;;;4.40;4.10;;;;;;;27.48;63.28;98986.56;6997789;28;20288;-84
2023/08/13 08:34:08;;;;;;;4.50;4.20;;;;;;;27.45;63.71;98985.22;6981713;28;20736;-84
2023/08/13 08:37:31;;;;;;;5.67;4.30;;;;;;;27.56;63.85;98986.63;6971440;28;20371;-84
2023/08/13 08:40:53;;;;;;;3.80;3.50;;;;;;;27.95;61.31;98958.34;6970262;28;20210;-84
2023/08/13 08:44:20;;;;;;;4.10;3.70;;;;;;;27.96;60.16;98946.91;6970098;28;20766;-84
2023/08/13 08:47:42;;;;;;;3.80;3.00;;;;;;;28.14;59.17;98970.06;6969202;28;20198;-84
2023/08/13 08:51:04;;;;;;;4.20;3.80;;;;;;;28.20;60.36;98977.13;6969166;28;20245;-85
2023/08/13 08:54:26;;;;;;;4.07;3.70;;;;;;;28.28;59.82;98985.50;6969980;28;20621;-84
2023/08/13 08:57:48;;;;;;;4.70;4.27;;;;;;;28.36;57.06;98983.94;6968631;28;20778;-84
2023/08/13 09:01:11;;;;;;;4.57;4.10;;;;;;;26.79;62.29;98978.53;6969332;28;20364;-84
2023/08/13 09:04:33;;;;;;;4.13;3.73;;;;;;;27.85;60.50;98972.44;6969700;28;20337;-84
2023/08/13 09:07:54;;;;;;;4.53;3.50;;;;;;;27.75;59.33;98959.59;6968850;28;20297;-84
2023/08/13 09:11:18;;;;;;;3.80;3.50;;;;;;;27.83;58.63;98945.00;6969667;28;20326;-84
2023/08/13 09:14:39;;;;;;;4.47;3.47;;;;;;;28.34;58.64;98963.97;6969348;28;20345;-84
2023/08/13 09:18:02;;;;;;;3.83;3.40;;;;;;;28.15;58.02;98964.19;6968818;28;20611;-84
2023/08/13 09:21:25;;;;;;;4.20;3.30;;;;;;;27.95;57.51;98919.53;6967773;28;20223;-84
2023/08/13 09:24:48;;;;;;;4.03;3.30;;;;;;;28.41;57.15;98954.13;6968917;28;20199;-84
2023/08/13 09:28:10;;;;;;;5.40;3.87;;;;;;;28.53;57.55;98959.06;6969860;28;20831;-84
2023/08/13 09:31:31;;;;;;;4.13;3.73;;;;;;;28.81;57.12;98953.03;6969138;28;20566;-84
2023/08/13 09:34:54;;;;;;;4.80;3.80;;;;;;;28.15;56.30;98961.44;6970539;28;20300;-83
2023/08/13 09:38:15;;;;;;;3.50;3.20;;;;;;;28.00;57.40;98942.38;6968724;28;20218;-84
2023/08/13 09:41:37;;;;;;;3.93;3.40;;;;;;;28.77;56.81;98932.59;6969912;28;20258;-84
2023/08/13 09:45:00;;;;;;;3.70;3.40;;;;;;;29.12;55.81;98944.66;6971410;28;20203;-84
2023/08/13 09:48:23;;;;;;;3.77;3.40;;;;;;;29.29;55.20;98928.06;7001758;28;20203;-84
2023/08/13 09:51:48;;;;;;;4.53;3.53;;;;;;;30.00;54.37;98922.75;7006397;28;20226;-82
2023/08/13 09:55:12;;;;;;;3.77;3.43;;;;;;;30.22;51.98;98941.25;6991157;28;20236;-85
2023/08/13 09:58:34;;;;;;;3.30;3.00;;;;;;;29.17;53.05;98881.47;6969277;28;20698;-84
2023/08/13 10:01:56;;;;;;;3.47;3.10;;;;;;;29.02;54.35;98915.25;6969972;28;20323;-85
2023/08/13 10:05:18;;;;;;;3.53;3.23;;;;;;;30.10;53.37;98921.63;6974634;28;20208;-84
2023/08/13 10:08:41;;;;;;;4.60;3.33;;;;;;;30.30;51.18;98916.19;6974307;28;20248;-84
2023/08/13 10:12:03;;;;;;;4.10;3.70;;;;;;;29.03;53.13;98928.00;6974075;28;20369;-84
2023/08/13 10:15:25;;;;;;;3.87;3.37;;;;;;;29.64;52.54;98913.09;6986844;28;20230;-84
2023/08/13 10:18:48;;;;;;;4.47;3.20;;;;;;;29.77;52.51;98901.81;7000059;28;20240;-84
2023/08/13 10:22:09;;;;;;;3.20;2.90;;;;;;;31.47;48.67;98911.59;7001175;28;20803;-84
2023/08/13 10:25:34;;;;;;;3.40;3.10;;;;;;;32.35;46.66;98908.28;7001063;28;20251;-84
2023/08/13 10:28:56;;;;;;;3.13;2.93;;;;;;;31.50;49.20;98903.41;6984854;28;20224;-86
2023/08/13 10:32:17;;;;;;;4.87;3.33;;;;;;;32.04;47.84;98896.75;6998794;28;20304;-84
2023/08/13 10:35:39;;;;;;;3.17;2.87;;;;;;;31.58;48.55;98884.97;7002025;28;20229;-83
2023/08/13 10:39:29;;;;;;;3.27;2.93;;;;;;;32.66;46.57;98891.81;7002208;28;20363;-83
2023/08/13 10:42:53;;;;;;;3.20;2.80;;;;;;;32.65;46.80;98883.78;7000561;28;20319;-83
2023/08/13 10:46:15;;;;;;;5.53;3.40;;;;;;;31.53;48.67;98896.31;6998165;28;20213;-83
2023/08/13 10:49:37;;;;;;;3.53;3.13;;;;;;;31.36;48.70;98888.09;7003000;28;20668;-83
2023/08/13 10:53:04;;;;;;;11.13;9.13;;;;;;;30.94;49.51;98889.13;7001330;28;20258;-83
2023/08/13 10:56:30;;;;;;;4.43;3.20;;;;;;;31.12;50.34;98891.50;6996360;28;20315;-83
2023/08/13 10:59:53;;;;;;;3.20;2.90;;;;;;;32.54;46.51;98886.22;6972739;28;20338;-84
2023/08/13 11:03:20;;;;;;;3.37;2.97;;;;;;;31.90;46.46;98885.03;6972230;28;20321;-83
2023/08/13 11:06:41;;;;;;;3.70;3.13;;;;;;;30.72;49.92;98881.84;6974924;28;20315;-83
2023/08/13 11:10:04;;;;;;;5.70;3.40;;;;;;;30.15;50.84;98875.00;6998734;28;20798;-83
2023/08/13 11:13:26;;;;;;;3.20;2.90;;;;;;;31.78;46.92;98890.56;6972656;28;20243;-81
2023/08/13 11:16:48;;;;;;;3.13;2.90;;;;;;;31.92;46.67;98888.31;6983564;28;20257;-83
2023/08/13 11:20:11;;;;;;;3.63;3.30;;;;;;;31.51;47.34;98876.34;6998599;28;20233;-83
2023/08/13 11:23:32;;;;;;;4.07;3.10;;;;;;;31.47;47.10;98859.47;7000318;28;20268;-83
2023/08/13 11:26:54;;;;;;;3.33;3.03;;;;;;;31.62;47.27;98878.41;6999557;28;20256;-82
2023/08/13 11:30:15;;;;;;;4.03;2.90;;;;;;;31.59;47.24;98875.44;6982717;28;20355;-82
2023/08/13 11:33:39;;;;;;;2.87;2.67;;;;;;;31.42;47.89;98886.75;6996569;28;20706;-83
2023/08/13 11:37:00;;;;;;;3.50;3.20;;;;;;;31.75;47.16;98874.53;6999422;28;20225;-82
2023/08/13 11:40:22;;;;;;;3.57;2.93;;;;;;;32.53;45.96;98876.19;7001184;28;20208;-83
2023/08/13 11:43:44;;;;;;;4.10;2.90;;;;;;;32.82;43.74;98870.44;6998829;28;20269;-83
2023/08/13 11:47:05;;;;;;;3.33;2.93;;;;;;;32.99;44.30;98874.97;6998528;28;20200;-83
2023/08/13 11:50:28;;;;;;;3.27;2.77;;;;;;;33.09;43.57;98874.53;6998989;28;20215;-84
2023/08/13 11:53:50;;;;;;;4.23;3.03;;;;;;;33.04;43.08;98842.06;6998905;28;20587;-83
2023/08/13 11:57:12;;;;;;;4.23;3.10;;;;;;;32.31;45.25;98859.88;6999721;28;20319;-83
2023/08/13 12:00:34;;;;;;;3.77;3.00;;;;;;;31.99;44.75;98857.06;6999695;28;20302;-83
2023/08/13 12:03:56;;;;;;;4.43;3.00;;;;;;;33.15;44.13;98847.97;6998991;28;20710;-83
2023/08/13 12:07:19;;;;;;;3.27;2.73;;;;;;;32.11;45.87;98832.00;6999423;28;20239;-84
2023/08/13 12:10:40;;;;;;;3.40;3.10;;;;;;;33.20;45.21;98850.53;6971842;28;20673;-84
2023/08/13 12:14:07;;;;;;;5.37;2.87;;;;;;;33.03;45.29;98859.97;6972682;28;20241;-83
2023/08/13 12:17:28;;;;;;;3.50;2.90;;;;;;;32.21;47.28;98867.84;6971502;28;20233;-84
2023/08/13 12:20:51;;;;;;;4.03;2.70;;;;;;;33.05;46.77;98865.19;6970907;28;20654;-85
2023/08/13 12:24:13;;;;;;;3.13;2.80;;;;;;;33.03;44.87;98862.78;6971388;28;20247;-84
2023/08/13 12:27:35;;;;;;;4.97;3.10;;;;;;;33.02;44.74;98863.13;6977067;28;20432;-86
2023/08/13 12:30:57;;;;;;;3.33;3.00;;;;;;;33.23;44.23;98874.97;7000948;28;20297;-83
2023/08/13 12:34:18;;;;;;;3.50;2.90;;;;;;;33.18;44.85;98864.00;7007144;28;20259;-81
2023/08/13 12:37:40;;;;;;;4.73;2.93;;;;;;;33.78;42.53;98839.56;7004912;28;20777;-82
2023/08/13 12:41:03;;;;;;;4.07;2.67;;;;;;;33.35;42.99;98861.81;6998148;28;20212;-84
2023/08/13 12:44:24;;;;;;;3.33;2.90;;;;;;;32.39;44.53;98844.19;6993445;28;20626;-82
2023/08/13 12:47:46;;;;;;;3.10;2.77;;;;;;;32.45;45.40;98853.97;6988982;28;20220;-83
2023/08/13 12:51:07;;;;;;;3.30;3.00;;;;;;;32.56;44.56;98858.78;6972766;28;20615;-83
2023/08/13 12:54:29;;;;;;;3.50;3.20;;;;;;;31.84;46.00;98861.31;6997783;28;20554;-83
2023/08/13 12:57:52;;;;;;;3.13;2.80;;;;;;;31.24;48.15;98857.38;6998473;28;20263;-83
2023/08/13 13:01:13;;;;;;;3.60;2.90;;;;;;;31.71;47.26;98853.19;6996835;28;20359;-84
2023/08/13 13:04:35;;;;;;;3.63;2.80;;;;;;;31.14;48.35;98838.22;6997215;28;20292;-84
2023/08/13 13:07:56;;;;;;;4.07;3.43;;;;;;;31.36;46.16;98762.69;6996643;28;20682;-84
2023/08/13 13:11:18;;;;;;;3.50;3.00;;;;;;;32.45;45.31;98838.06;6996729;28;20271;-84
2023/08/13 13:14:41;;;;;;;3.83;3.20;;;;;;;31.43;47.15;98832.63;6996487;28;20288;-83
2023/08/13 13:18:03;;;;;;;3.60;3.20;;;;;;;31.02;47.58;98829.78;6983956;28;20256;-82
2023/08/13 13:21:24;;;;;;;5.70;2.83;;;;;;;31.59;45.82;98847.56;7000556;28;20259;-82
2023/08/13 13:24:46;;;;;;;4.20;3.53;;;;;;;32.01;44.80;98838.03;7003322;28;20252;-82
2023/08/13 13:28:07;;;;;;;3.40;2.70;;;;;;;32.36;44.62;98845.69;7002098;28;20204;-82
2023/08/13 13:31:30;;;;;;;3.33;2.90;;;;;;;32.46;44.69;98833.25;7001741;28;20764;-83
2023/08/13 13:34:52;;;;;;;4.97;3.00;;;;;;;33.02;43.73;98838.78;7001901;28;20284;-83
2023/08/13 13:38:14;;;;;;;3.50;3.13;;;;;;;32.28;43.73;98840.22;7002373;28;20236;-82
2023/08/13 13:41:35;;;;;;;3.40;3.10;;;;;;;32.49;44.25;98827.00;7007229;28;20316;-83
2023/08/13 13:44:57;;;;;;;3.30;3.00;;;;;;;32.04;44.95;98824.22;7004779;28;20190;-83
2023/08/13 13:48:20;;;;;;;4.43;3.50;;;;;;;32.75;42.55;98807.91;7006339;28;20209;-83
2023/08/13 13:51:42;;;;;;;3.70;3.40;;;;;;;31.68;44.91;98809.28;7000689;28;20299;-82
2023/08/13 13:55:04;;;;;;;3.80;3.50;;;;;;;30.96;47.52;98794.94;7006223;28;20189;-84
2023/08/13 13:58:25;;;;;;;3.40;3.10;;;;;;;31.62;45.19;98799.50;7001300;28;20268;-84
2023/08/13 14:01:47;;;;;;;3.40;3.10;;;;;;;32.03;45.58;98803.06;7001117;28;20307;-84
2023/08/13 14:05:13;;;;;;;3.87;2.57;;;;;;;32.13;43.58;98762.72;6992861;28;20213;-86
2023/08/13 14:08:35;;;;;;;3.43;3.13;;;;;;;31.17;44.74;98696.28;7000110;28;20255;-84
2023/08/13 14:11:58;;;;;;;3.37;2.90;;;;;;;32.32;42.03;98727.53;7005760;28;20230;-84
2023/08/13 14:15:20;;;;;;;4.10;2.83;;;;;;;33.02;41.68;98796.06;7011261;28;20208;-87
2023/08/13 14:18:41;;;;;;;3.20;2.90;;;;;;;33.03;41.85;98801.31;7010261;28;20225;-85
2023/08/13 14:22:04;;;;;;;3.07;2.70;;;;;;;33.40;41.28;98793.66;7007250;28;20853;-84
2023/08/13 14:25:26;;;;;;;4.50;2.73;;;;;;;33.44;40.54;98745.06;7006764;28;20600;-85
2023/08/13 14:28:47;;;;;;;5.70;3.00;;;;;;;31.81;43.29;98794.25;7004473;28;20225;-84
2023/08/13 14:32:09;;;;;;;3.33;3.03;;;;;;;32.88;43.20;98787.22;6999490;28;20235;-85
2023/08/13 14:35:30;;;;;;;2.70;2.50;;;;;;;33.17;41.40;98796.16;6988461;28;20677;-86
2023/08/13 14:38:55;;;;;;;2.80;2.57;;;;;;;33.35;40.80;98799.50;7006611;28;20224;-86
2023/08/13 14:42:16;;;;;;;3.70;2.50;;;;;;;33.49;40.82;98797.13;7004733;28;20708;-85
2023/08/13 14:45:38;;;;;;;3.73;2.30;;;;;;;33.38;40.69;98776.44;6978361;28;20201;-85
2023/08/13 14:48:59;;;;;;;2.57;2.37;;;;;;;33.98;40.11;98781.78;6980049;28;20259;-84
2023/08/13 14:52:21;;;;;;;2.83;2.63;;;;;;;33.81;40.58;98784.91;7004107;28;20685;-87
2023/08/13 14:55:44;;;;;;;3.27;2.40;;;;;;;32.69;42.15;98782.22;7003595;28;20296;-84
2023/08/13 14:59:06;;;;;;;3.77;2.70;;;;;;;33.41;41.17;98781.31;7005221;28;20887;-84
2023/08/13 15:02:28;;;;;;;5.60;2.80;;;;;;;33.53;40.08;98779.28;7003925;28;21054;-86
2023/08/13 15:05:49;;;;;;;3.53;2.70;;;;;;;33.60;40.49;98765.50;7004450;28;20322;-85
2023/08/13 15:09:11;;;;;;;4.67;2.63;;;;;;;32.57;42.30;98762.66;7004935;28;20233;-85
2023/08/13 15:12:34;;;;;;;4.33;2.90;;;;;;;33.21;40.42;98745.94;7004652;28;20226;-85
2023/08/13 15:15:55;;;;;;;2.27;2.07;;;;;;;32.82;40.82;98767.09;7005738;28;20209;-85
2023/08/13 15:19:17;;;;;;;3.30;2.40;;;;;;;33.07;41.09;98751.13;7002685;28;20229;-85
2023/08/13 15:22:39;;;;;;;2.07;1.83;;;;;;;32.53;41.35;98746.94;6971929;28;20220;-86
2023/08/13 15:26:00;;;;;;;2.50;2.30;;;;;;;32.64;40.84;98736.94;6970641;28;20234;-86
2023/08/13 15:29:23;;;;;;;2.33;2.03;;;;;;;32.26;41.07;98748.44;6971468;28;20199;-86
2023/08/13 15:32:45;;;;;;;2.43;2.23;;;;;;;32.32;40.73;98679.28;6971380;28;20630;-87
2023/08/13 15:36:07;;;;;;;3.33;2.40;;;;;;;32.24;40.30;98722.88;6970832;28;20720;-87
2023/08/13 15:39:28;;;;;;;2.93;2.20;;;;;;;32.06;41.02;98735.38;6993260;28;20673;-86
2023/08/13 15:42:50;;;;;;;2.63;2.30;;;;;;;32.20;41.29;98719.13;6999042;28;20317;-85
2023/08/13 15:46:13;;;;;;;2.50;2.30;;;;;;;32.60;40.46;98756.38;6997836;28;20231;-86
2023/08/13 15:49:36;;;;;;;3.63;2.73;;;;;;;32.52;40.59;98743.34;6980090;28;20277;-86
2023/08/13 15:52:57;;;;;;;2.33;2.13;;;;;;;32.10;41.21;98727.13;6971138;28;20821;-86